Relevés horaires Koksijde (Belgique)


Relevés horaires à Koksijde - Lundi 29 Févr. 2016
Heure UTC1 Température [°C] Vent [km/h] Hum. [%] Pres.4 [hPa] Visi. [Km] Nébu. [octa] Préc.5 [mm] Cond.
2m. Res. Ros. Dir.2 Vit. Moy. Raf.3
23:00 -0.4 -0.4 -1.4 NNO 1.9 3.7 3.7 93 1025.9(0.0/3h) 20 5/8 -- --
22:00 0.2 0.2 -1.4 NNO 1.9 1.9 1.9 89 1026.4(0.1/3h) 20 6/8 -- --
21:00 1.0 1.0 -1.1 NNO 1.9 -- -- 86 1026.4(0.2/3h) 20 6/8 -- --
20:00 2.5 2.5 -0.7 NNO 1.9 3.7 5.6 79 1025.7(-0.5/3h) 20 6/8 -- --
19:00 1.8 1.8 -1.0 N 3.7 5.6 9.3 82 1026.2(0.1/3h) 20 5/8 -- --
18:00 2.7 1.2 -0.6 N 5.6 -- -- 79 1026(0.4/3h) 20 5/8 0/0h
--
17:00 4.0 2.1 -0.8 N 7.4 11.1 14.8 71 1026.4(0.6/3h) 20 5/8 -- --
16:00 4.6 1.9 -0.5 N 11.1 13.0 16.7 69 1026(0.4/3h) 20 5/8 -- --
15:00 5.5 3 -0.5 NNE 11.1 -- -- 65 1025.7(-0.1/3h) 20 4/8 -- --
14:00 5.4 2.6 -0.9 NNE 13.0 13.0 18.5 64 1025.7(-0.2/3h) 20 4/8 -- --
13:00 5.8 3.1 -0.7 NE 13.0 13.0 18.5 63 1025.5(-0.5/3h) 20 4/8 -- --
12:00 5.0 2.1 -1.2 NE 13.0 14.8 20.4 64 1025.9(-0.4/3h) 20 4/8 0/0h
--
11:00 6.2 3.9 -1.2 ENE 11.1 13.0 18.5 59 1026(-0.1/3h) 20 5/8 -- --
10:00 5.2 2.7 -0.8 NE 11.1 11.1 16.7 65 1026.2(0.7/3h) 20 7/8 -- --
09:00 4.6 1.9 -0.5 ENE 11.1 11.1 14.8 69 1026.2(1.6/3h) 20 6/8 -- --
08:00 3.2 1.2 -0.5 ENE 7.4 7.4 9.3 77 1026(1.6/3h) 20 4/8 -- --
07:00 1.3 -1 -1.6 NE 7.4 7.4 9.3 81 1025.5(1.0/3h) 20 2/8 -- --
06:00 1.8 -0.4 -1.6 ENE 7.4 -- -- 78 1024.5(0.6/3h) 20 2/8 0/0h
--
05:00 2.9 -0.1 -2.1 NE 11.1 13.0 18.5 70 1024.5(0.2/3h) 20 3/8 -- --
04:00 2.4 0.3 -1.4 NE 7.4 9.3 13.0 76 1024.4(0.1/3h) 20 1/8 -- --
03:00 2.5 -0.2 -1.0 NE 9.3 11.1 14.8 78 1023.8(-0.1/3h) 20 1/8 -- --
02:00 2.9 0.8 -0.7 NE 7.4 11.1 14.8 77 1024.2(0.6/3h) 20 1/8 -- --
01:00 3.0 0.4 -0.8 NE 9.3 11.1 14.8 76 1024.2(0.4/3h) 20 1/8 -- --
00:00 3.5 0.6 -0.9 NE 11.1 16.7 22.2 73 1024(0.3/3h) 20 1/8 0/0h
--

1 Coordinated Universal Time. Actuellement il est 16:00 locale et 14:00 UTC.

2 Le vent souffle depuis la direction indiquée vers la direction oposée.

3 Les rafales max. sont disponible 40 min après l'heure du relevé.

4 Pour les stations d'altitude (plus de 600m) le géopotentiel du niveau le plus proche de la pression obligatoire est indiqué.

5 Les stations disposant d'un diffuseur peuvent indiquer "trace". Cela signifie que des précipitations ont touchés le sol mais que la quantité est inférieure à 0.1 mm.

Récapitulatif de la journée
Température [°C] Vent [km/h] Ensoleillement4 [h] Precipitations totale5 [mm] Pression [Hpa]
Min1 Max.2 Moy.3 Max. Min Max.
1.8 6.6 10.1 22.2 0 h 0 min 0 1023.8 1026.4

1 Température minimale relevée entre 18:00 UTC la veille et 18:00 UTC le jour donné.

2 Température maximale relevée entre 06:00 UTC le jour donné et 06:00 UTC le lendemain.

3 Vent moyen de la journée basé sur les relevés horaires.

4 Ensoleillement en heures relevé entre 06:00 UTC la veille et 06:00 UTC le jour donné.

5 Précipitations totales tombées entre 06:00 UTC la jour donné et 06:00 UTC le lendemain.

Graphiques horaires